createdAt,value
2022-11-21T00:00:00.297Z,80.04
2022-11-21T00:01:01.214Z,80.04
2022-11-21T00:02:00.284Z,80.04
2022-11-21T00:03:00.803Z,80.15
2022-11-21T00:04:00.255Z,80.15
2022-11-21T00:05:00.252Z,80.15
2022-11-21T00:06:02.018Z,80.15
2022-11-21T00:07:00.299Z,80.15
2022-11-21T00:08:00.256Z,80.31
2022-11-21T00:09:00.261Z,80.31
2022-11-21T00:10:00.256Z,80.31
2022-11-21T00:11:00.262Z,80.31
2022-11-21T00:12:00.230Z,80.31
2022-11-21T00:13:00.239Z,80.43
2022-11-21T00:14:00.242Z,80.43
2022-11-21T00:15:00.226Z,80.43
2022-11-21T00:16:04.526Z,80.43
2022-11-21T00:17:00.228Z,80.43
2022-11-21T00:18:02.194Z,80.50
2022-11-21T00:19:00.242Z,80.50
2022-11-21T00:20:00.247Z,80.50
2022-11-21T00:21:10.100Z,80.50
2022-11-21T00:22:00.242Z,80.50
2022-11-21T00:23:00.233Z,80.45
2022-11-21T00:24:00.319Z,80.45
2022-11-21T00:25:00.230Z,80.45
2022-11-21T00:26:04.419Z,80.45
2022-11-21T00:27:00.305Z,80.45
2022-11-21T00:28:00.233Z,80.49
2022-11-21T00:29:00.226Z,80.49
2022-11-21T00:30:00.300Z,80.49
2022-11-21T00:31:00.338Z,80.49
2022-11-21T00:32:00.215Z,80.49
2022-11-21T00:33:00.241Z,80.44
2022-11-21T00:34:00.248Z,80.44
2022-11-21T00:35:00.354Z,80.44
2022-11-21T00:36:08.127Z,80.44
2022-11-21T00:37:00.245Z,80.44
2022-11-21T00:38:00.260Z,80.49
2022-11-21T00:39:00.229Z,80.49
2022-11-21T00:40:00.300Z,80.49
2022-11-21T00:41:00.238Z,80.49
2022-11-21T00:42:00.250Z,80.49
2022-11-21T00:43:00.217Z,80.67
2022-11-21T00:44:00.236Z,80.67
2022-11-21T00:45:00.285Z,80.67
2022-11-21T00:46:00.241Z,80.67
2022-11-21T00:47:00.290Z,80.67
2022-11-21T00:48:00.234Z,80.66
2022-11-21T00:49:00.239Z,80.66
2022-11-21T00:50:00.268Z,80.66
2022-11-21T00:51:00.239Z,80.66
2022-11-21T00:52:00.429Z,80.66
2022-11-21T00:53:00.275Z,80.57
2022-11-21T00:54:00.231Z,80.57
2022-11-21T00:55:00.271Z,80.57
2022-11-21T00:56:00.296Z,80.57
2022-11-21T00:57:00.225Z,80.57
2022-11-21T00:58:00.227Z,80.56
2022-11-21T00:59:00.267Z,80.56
2022-11-21T01:00:00.306Z,80.56
2022-11-21T01:01:02.538Z,80.56
2022-11-21T01:02:00.241Z,80.56
2022-11-21T01:03:00.227Z,80.74
2022-11-21T01:04:00.309Z,80.74
2022-11-21T01:05:00.233Z,80.74
2022-11-21T01:06:01.388Z,80.74
2022-11-21T01:07:00.360Z,80.74
2022-11-21T01:08:00.245Z,80.85
2022-11-21T01:09:00.247Z,80.85
2022-11-21T01:10:00.320Z,80.85
2022-11-21T01:11:04.304Z,80.85
2022-11-21T01:12:00.225Z,80.85
2022-11-21T01:13:00.234Z,80.84
2022-11-21T01:14:00.299Z,80.84
2022-11-21T01:15:00.246Z,80.84
2022-11-21T01:16:10.159Z,80.84
2022-11-21T01:17:00.221Z,80.84
2022-11-21T01:18:00.231Z,80.84
2022-11-21T01:19:00.234Z,80.84
2022-11-21T01:20:00.258Z,80.84
2022-11-21T01:21:01.036Z,80.84
2022-11-21T01:22:00.266Z,80.84
2022-11-21T01:23:00.237Z,80.70
2022-11-21T01:24:00.437Z,80.70
2022-11-21T01:25:00.350Z,80.70
2022-11-21T01:26:02.205Z,80.70
2022-11-21T01:27:00.227Z,80.70
2022-11-21T01:28:00.229Z,80.68
2022-11-21T01:29:00.286Z,80.68
2022-11-21T01:30:00.318Z,80.68
2022-11-21T01:31:10.174Z,80.68
2022-11-21T01:32:00.248Z,80.68
2022-11-21T01:33:00.228Z,80.70
2022-11-21T01:34:00.680Z,80.70
2022-11-21T01:35:00.251Z,80.70
2022-11-21T01:36:07.585Z,80.70
2022-11-21T01:37:00.220Z,80.70
2022-11-21T01:38:00.238Z,80.66
2022-11-21T01:39:02.261Z,80.66
2022-11-21T01:40:00.251Z,80.66
2022-11-21T01:41:00.236Z,80.66
2022-11-21T01:42:00.291Z,80.66
2022-11-21T01:43:03.035Z,80.78
2022-11-21T01:44:00.711Z,80.78
2022-11-21T01:45:00.277Z,80.78
2022-11-21T01:46:03.329Z,80.78
2022-11-21T01:47:00.235Z,80.78
2022-11-21T01:48:00.278Z,80.70
2022-11-21T01:49:10.169Z,80.70
2022-11-21T01:50:00.229Z,80.70
2022-11-21T01:51:04.705Z,80.70
2022-11-21T01:52:10.163Z,80.70
2022-11-21T01:53:00.348Z,80.70
2022-11-21T01:54:10.175Z,80.70
2022-11-21T01:55:01.970Z,80.70
2022-11-21T01:56:00.533Z,80.70
2022-11-21T01:57:02.593Z,80.70
2022-11-21T01:58:00.459Z,80.71
2022-11-21T01:59:01.489Z,80.71
2022-11-21T02:00:10.175Z,80.71
2022-11-21T02:01:00.909Z,80.71
2022-11-21T02:02:02.314Z,80.71
2022-11-21T02:03:03.738Z,80.72
2022-11-21T02:04:01.753Z,80.72
2022-11-21T02:05:01.384Z,80.72
2022-11-21T02:06:00.280Z,80.72
2022-11-21T02:07:03.228Z,80.72
2022-11-21T02:08:03.394Z,80.77
2022-11-21T02:09:00.576Z,80.77
2022-11-21T02:10:01.016Z,80.77
2022-11-21T02:11:10.210Z,80.77
2022-11-21T02:12:04.293Z,80.77
2022-11-21T02:13:01.191Z,80.91
2022-11-21T02:14:00.464Z,80.91
2022-11-21T02:15:00.645Z,80.91
2022-11-21T02:16:00.956Z,80.91
2022-11-21T02:17:04.350Z,80.91
2022-11-21T02:18:00.269Z,80.90
2022-11-21T02:19:00.476Z,80.90
2022-11-21T02:20:01.826Z,80.90
2022-11-21T02:21:08.223Z,80.90
2022-11-21T02:22:04.356Z,80.90
2022-11-21T02:23:06.444Z,80.88
2022-11-21T02:24:05.847Z,80.88
2022-11-21T02:25:01.606Z,80.88
2022-11-21T02:26:00.255Z,80.88
2022-11-21T02:27:00.805Z,80.88
2022-11-21T02:28:01.758Z,80.93
2022-11-21T02:29:00.417Z,80.93
2022-11-21T02:30:00.952Z,80.93
2022-11-21T02:31:00.230Z,80.93
2022-11-21T02:32:02.946Z,80.93
2022-11-21T02:33:00.266Z,80.96
2022-11-21T02:34:00.244Z,80.96
2022-11-21T02:35:00.326Z,80.96
2022-11-21T02:36:01.050Z,80.96
2022-11-21T02:37:00.719Z,80.96
2022-11-21T02:38:02.780Z,80.96
2022-11-21T02:39:00.523Z,80.96
2022-11-21T02:40:02.601Z,80.96
2022-11-21T02:41:10.176Z,80.96
2022-11-21T02:42:10.177Z,80.96
2022-11-21T02:43:05.327Z,81.02
2022-11-21T02:44:10.201Z,81.02
2022-11-21T02:45:03.510Z,81.02
2022-11-21T02:46:00.272Z,81.02
2022-11-21T02:47:00.288Z,81.02
2022-11-21T02:48:04.012Z,80.88
2022-11-21T02:49:03.063Z,80.88
2022-11-21T02:50:07.720Z,80.88
2022-11-21T02:51:00.245Z,80.88
2022-11-21T02:52:00.258Z,80.88
2022-11-21T02:53:00.743Z,80.74
2022-11-21T02:54:00.246Z,80.74
2022-11-21T02:55:00.282Z,80.74
2022-11-21T02:56:00.416Z,80.74
2022-11-21T02:57:00.274Z,80.74
2022-11-21T02:58:04.631Z,80.68
2022-11-21T02:59:00.260Z,80.68
2022-11-21T03:00:00.347Z,80.68
2022-11-21T03:01:00.313Z,80.68
2022-11-21T03:02:00.317Z,80.68
2022-11-21T03:03:00.473Z,80.61
2022-11-21T03:04:00.241Z,80.61
2022-11-21T03:05:00.601Z,80.61
2022-11-21T03:06:00.261Z,80.61
2022-11-21T03:07:00.311Z,80.61
2022-11-21T03:08:00.311Z,80.63
2022-11-21T03:09:00.277Z,80.63
2022-11-21T03:10:00.244Z,80.63
2022-11-21T03:11:00.299Z,80.63
2022-11-21T03:12:04.384Z,80.63
2022-11-21T03:13:00.349Z,80.70
2022-11-21T03:14:00.245Z,80.70
2022-11-21T03:15:00.257Z,80.70
2022-11-21T03:16:00.312Z,80.70
2022-11-21T03:17:00.262Z,80.70
2022-11-21T03:18:00.781Z,80.73
2022-11-21T03:19:00.358Z,80.73
2022-11-21T03:20:00.538Z,80.73
2022-11-21T03:21:00.247Z,80.73
2022-11-21T03:22:00.236Z,80.73
2022-11-21T03:23:00.380Z,80.66
2022-11-21T03:24:00.358Z,80.66
2022-11-21T03:25:00.235Z,80.66
2022-11-21T03:26:00.237Z,80.66
2022-11-21T03:27:00.308Z,80.66
2022-11-21T03:28:00.293Z,80.56
2022-11-21T03:29:00.238Z,80.56
2022-11-21T03:30:00.385Z,80.56
2022-11-21T03:31:00.225Z,80.56
2022-11-21T03:32:00.248Z,80.56
2022-11-21T03:33:00.250Z,80.54
2022-11-21T03:34:00.392Z,80.54
2022-11-21T03:35:00.277Z,80.54
2022-11-21T03:36:00.233Z,80.54
2022-11-21T03:37:00.322Z,80.54
2022-11-21T03:38:00.239Z,80.52
2022-11-21T03:39:00.305Z,80.52
2022-11-21T03:40:00.373Z,80.52
2022-11-21T03:41:03.993Z,80.52
2022-11-21T03:42:00.258Z,80.52
2022-11-21T03:43:04.263Z,80.67
2022-11-21T03:44:01.664Z,80.67
2022-11-21T03:45:00.316Z,80.67
2022-11-21T03:46:00.222Z,80.67
2022-11-21T03:47:00.246Z,80.67
2022-11-21T03:48:00.250Z,80.72
2022-11-21T03:49:00.405Z,80.72
2022-11-21T03:50:00.231Z,80.72
2022-11-21T03:51:00.248Z,80.72
2022-11-21T03:52:00.308Z,80.72
2022-11-21T03:53:00.235Z,80.72
2022-11-21T03:54:00.333Z,80.72
2022-11-21T03:55:00.310Z,80.72
2022-11-21T03:56:00.251Z,80.72
2022-11-21T03:57:00.231Z,80.72
2022-11-21T03:58:00.260Z,80.70
2022-11-21T03:59:00.381Z,80.70
2022-11-21T04:00:00.290Z,80.70
2022-11-21T04:01:00.336Z,80.70
2022-11-21T04:10:00.279Z,80.64
2022-11-21T04:11:00.434Z,80.55
2022-11-21T04:12:05.007Z,80.55
2022-11-21T04:13:00.321Z,80.55
2022-11-21T04:14:00.268Z,80.55
2022-11-21T04:15:00.242Z,80.55
2022-11-21T04:16:00.311Z,80.54
2022-11-21T04:17:00.478Z,80.54
2022-11-21T04:18:00.235Z,80.54
2022-11-21T04:19:00.284Z,80.54
2022-11-21T04:20:00.245Z,80.54
2022-11-21T04:21:02.057Z,80.58
2022-11-21T04:22:00.229Z,80.58
2022-11-21T04:23:00.264Z,80.58
2022-11-21T04:24:00.221Z,80.58
2022-11-21T04:25:00.267Z,80.58
2022-11-21T04:26:00.437Z,80.42
2022-11-21T04:27:00.224Z,80.42
2022-11-21T04:28:01.325Z,80.42
2022-11-21T04:29:00.314Z,80.42
2022-11-21T04:30:00.289Z,80.42
2022-11-21T04:31:09.953Z,80.26
2022-11-21T04:32:00.240Z,80.26
2022-11-21T04:33:00.220Z,80.26
2022-11-21T04:34:00.234Z,80.26
2022-11-21T04:35:00.226Z,80.26
2022-11-21T04:36:00.286Z,80.48
2022-11-21T04:37:00.305Z,80.48
2022-11-21T04:38:00.285Z,80.48
2022-11-21T04:39:00.275Z,80.48
2022-11-21T04:40:00.261Z,80.48
2022-11-21T04:41:00.234Z,80.81
2022-11-21T04:42:00.231Z,80.81
2022-11-21T04:43:00.233Z,80.81
2022-11-21T04:44:00.236Z,80.81
2022-11-21T04:45:00.257Z,80.81
2022-11-21T04:46:00.261Z,80.77
2022-11-21T04:47:05.124Z,80.77
2022-11-21T04:48:00.241Z,80.77
2022-11-21T04:49:00.295Z,80.77
2022-11-21T04:50:00.296Z,80.77
2022-11-21T04:51:00.228Z,81.03
2022-11-21T04:52:00.227Z,81.03
2022-11-21T04:53:00.296Z,81.03
2022-11-21T04:54:00.223Z,81.03
2022-11-21T04:55:00.617Z,81.03
2022-11-21T04:56:02.989Z,81.25
2022-11-21T04:57:00.335Z,81.25
2022-11-21T04:58:00.235Z,81.25
2022-11-21T04:59:00.837Z,81.25
2022-11-21T05:00:00.358Z,81.25
2022-11-21T05:01:08.168Z,81.23
2022-11-21T05:02:01.457Z,81.23
2022-11-21T05:03:02.532Z,81.23
2022-11-21T05:04:00.254Z,81.23
2022-11-21T05:05:00.277Z,81.23
2022-11-21T05:06:00.486Z,81.27
2022-11-21T05:07:00.304Z,81.27
2022-11-21T05:08:00.275Z,81.27
2022-11-21T05:09:00.285Z,81.27
2022-11-21T05:10:00.271Z,81.27
2022-11-21T05:11:00.263Z,81.30
2022-11-21T05:12:00.241Z,81.30
2022-11-21T05:13:00.229Z,81.30
2022-11-21T05:14:00.281Z,81.30
2022-11-21T05:15:00.279Z,81.30
2022-11-21T05:16:00.231Z,81.40
2022-11-21T05:17:00.229Z,81.40
2022-11-21T05:18:00.267Z,81.40
2022-11-21T05:19:00.353Z,81.40
2022-11-21T05:20:00.314Z,81.40
2022-11-21T05:21:00.564Z,81.45
2022-11-21T05:22:00.245Z,81.45
2022-11-21T05:23:00.235Z,81.45
2022-11-21T05:24:00.366Z,81.45
2022-11-21T05:25:00.259Z,81.45
2022-11-21T05:26:00.331Z,81.43
2022-11-21T05:27:00.343Z,81.43
2022-11-21T05:28:00.300Z,81.43
2022-11-21T05:29:00.327Z,81.43
2022-11-21T05:30:00.228Z,81.43
2022-11-21T05:31:00.246Z,81.54
2022-11-21T05:32:00.235Z,81.54
2022-11-21T05:33:00.285Z,81.54
2022-11-21T05:34:00.233Z,81.54
2022-11-21T05:35:00.260Z,81.54
2022-11-21T05:36:00.298Z,81.57
2022-11-21T05:37:00.338Z,81.57
2022-11-21T05:38:00.223Z,81.57
2022-11-21T05:39:00.257Z,81.57
2022-11-21T05:40:00.223Z,81.57
2022-11-21T05:41:00.218Z,81.69
2022-11-21T05:42:03.158Z,81.69
2022-11-21T05:43:00.233Z,81.69
2022-11-21T05:44:00.258Z,81.69
2022-11-21T05:45:00.273Z,81.69
2022-11-21T05:51:00.271Z,82.11
2022-11-21T05:52:00.235Z,82.11
2022-11-21T05:53:01.306Z,82.11
2022-11-21T05:54:00.566Z,82.11
2022-11-21T05:55:00.236Z,82.11
2022-11-21T05:56:02.003Z,82.11
2022-11-21T05:57:00.251Z,82.11
2022-11-21T05:58:00.439Z,82.11
2022-11-21T05:59:00.247Z,82.11
2022-11-21T06:00:00.286Z,82.11
2022-11-21T06:01:00.374Z,82.40
2022-11-21T06:02:00.308Z,82.40
2022-11-21T06:03:00.285Z,82.40
2022-11-21T06:04:00.309Z,82.40
2022-11-21T06:05:00.222Z,82.40
2022-11-21T06:06:10.235Z,82.44
2022-11-21T06:07:00.351Z,82.44
2022-11-21T06:08:00.235Z,82.44
2022-11-21T06:09:00.655Z,82.44
2022-11-21T06:10:00.242Z,82.44
2022-11-21T06:11:01.119Z,82.59
2022-11-21T06:12:00.227Z,82.59
2022-11-21T06:13:00.507Z,82.59
2022-11-21T06:14:00.249Z,82.59
2022-11-21T06:15:00.231Z,82.59
2022-11-21T06:16:01.253Z,82.71
2022-11-21T06:17:00.239Z,82.71
2022-11-21T06:18:00.251Z,82.71
2022-11-21T06:19:00.275Z,82.71
2022-11-21T06:20:00.603Z,82.71
2022-11-21T06:21:01.364Z,82.88
2022-11-21T06:22:00.227Z,82.88
2022-11-21T06:23:00.238Z,82.88
2022-11-21T06:24:00.253Z,82.88
2022-11-21T06:25:00.298Z,82.88
2022-11-21T06:26:01.623Z,83.36
2022-11-21T06:27:00.227Z,83.36
2022-11-21T06:28:00.237Z,83.36
2022-11-21T06:29:00.275Z,83.36
2022-11-21T06:30:00.337Z,83.36
2022-11-21T06:31:04.394Z,83.54
2022-11-21T06:32:00.245Z,83.54
2022-11-21T06:33:02.234Z,83.54
2022-11-21T06:34:00.234Z,83.54
2022-11-21T06:35:00.274Z,83.54
2022-11-21T06:36:00.893Z,83.57
2022-11-21T06:37:00.236Z,83.57
2022-11-21T06:38:00.226Z,83.57
2022-11-21T06:39:00.254Z,83.57
2022-11-21T06:40:00.248Z,83.57
2022-11-21T06:41:03.972Z,83.68
2022-11-21T06:42:00.704Z,83.68
2022-11-21T06:43:00.556Z,83.68
2022-11-21T06:44:00.395Z,83.68
2022-11-21T06:45:00.235Z,83.68
2022-11-21T06:46:00.285Z,83.67
2022-11-21T06:47:00.284Z,83.67
2022-11-21T06:48:00.811Z,83.67
2022-11-21T06:49:00.276Z,83.67
2022-11-21T06:50:00.244Z,83.67
2022-11-21T06:51:04.349Z,83.60
2022-11-21T06:52:00.223Z,83.60
2022-11-21T06:53:00.277Z,83.60
2022-11-21T06:54:00.293Z,83.60
2022-11-21T06:55:00.399Z,83.60
2022-11-21T06:56:00.809Z,83.78
2022-11-21T06:57:00.229Z,83.78
2022-11-21T06:58:00.290Z,83.78
2022-11-21T06:59:00.262Z,83.78
2022-11-21T07:00:00.291Z,83.78
2022-11-21T07:01:04.414Z,83.76
2022-11-21T07:02:00.248Z,83.76
2022-11-21T07:04:00.279Z,83.76
2022-11-21T07:05:00.235Z,83.76
2022-11-21T07:06:00.658Z,83.81
2022-11-21T07:07:00.372Z,83.81
2022-11-21T07:08:01.247Z,83.81
2022-11-21T07:09:31.103Z,83.81
2022-11-21T07:10:00.245Z,83.81
2022-11-21T07:11:24.307Z,83.77
2022-11-21T07:12:00.610Z,83.77
2022-11-21T07:13:00.385Z,83.77
2022-11-21T07:15:00.294Z,83.77
2022-11-21T07:16:01.516Z,83.60
2022-11-21T07:17:00.237Z,83.60
2022-11-21T07:18:00.356Z,83.60
2022-11-21T07:19:00.234Z,83.60
2022-11-21T07:21:01.155Z,83.70
2022-11-21T07:22:00.243Z,83.70
2022-11-21T07:23:00.295Z,83.70
2022-11-21T07:24:00.232Z,83.70
2022-11-21T07:25:00.377Z,83.70
2022-11-21T07:26:02.054Z,83.52
2022-11-21T07:27:00.828Z,83.52
2022-11-21T07:28:01.897Z,83.52
2022-11-21T07:29:00.272Z,83.52
2022-11-21T07:30:00.279Z,83.52
2022-11-21T07:31:00.726Z,83.50
2022-11-21T07:32:00.238Z,83.50
2022-11-21T07:33:02.282Z,83.50
2022-11-21T07:34:00.230Z,83.50
2022-11-21T07:35:00.243Z,83.50
2022-11-21T07:36:00.272Z,83.60
2022-11-21T07:37:00.239Z,83.60
2022-11-21T07:38:00.840Z,83.60
2022-11-21T07:39:00.272Z,83.60
2022-11-21T07:40:00.291Z,83.60
2022-11-21T07:41:00.262Z,83.40
2022-11-21T07:42:00.239Z,83.40
2022-11-21T07:43:01.116Z,83.40
2022-11-21T07:44:00.309Z,83.40
2022-11-21T07:45:00.236Z,83.40
2022-11-21T07:46:00.218Z,83.56
2022-11-21T07:47:00.239Z,83.56
2022-11-21T07:48:00.887Z,83.56
2022-11-21T07:49:03.356Z,83.56
2022-11-21T07:50:00.400Z,83.56
2022-11-21T07:51:02.172Z,83.42
2022-11-21T07:52:00.329Z,83.42
2022-11-21T07:53:01.791Z,83.42
2022-11-21T07:54:00.225Z,83.42
2022-11-21T07:55:00.341Z,83.42
2022-11-21T07:56:00.289Z,83.43
2022-11-21T07:57:00.225Z,83.43
2022-11-21T07:58:01.088Z,83.43
2022-11-21T07:59:00.244Z,83.43
2022-11-21T08:00:00.290Z,83.43
2022-11-21T08:01:04.254Z,83.43
2022-11-21T08:02:00.308Z,83.43
2022-11-21T08:03:00.360Z,83.43
2022-11-21T08:04:00.225Z,83.43
2022-11-21T08:05:00.232Z,83.43
2022-11-21T08:06:01.077Z,83.26
2022-11-21T08:07:00.306Z,83.26
2022-11-21T08:08:00.233Z,83.26
2022-11-21T08:09:00.312Z,83.26
2022-11-21T08:10:00.226Z,83.26
2022-11-21T08:11:02.957Z,83.19
2022-11-21T08:12:00.256Z,83.19
2022-11-21T08:13:00.242Z,83.19
2022-11-21T08:14:00.243Z,83.19
2022-11-21T08:15:00.221Z,83.19
2022-11-21T08:16:02.589Z,83.13
2022-11-21T08:17:00.246Z,83.13
2022-11-21T08:18:08.478Z,83.13
2022-11-21T08:19:00.326Z,83.13
2022-11-21T08:20:00.584Z,83.13
2022-11-21T08:21:01.386Z,83.01
2022-11-21T08:22:00.279Z,83.01
2022-11-21T08:23:00.255Z,83.01
2022-11-21T08:24:00.328Z,83.01
2022-11-21T08:25:00.290Z,83.01
2022-11-21T08:26:00.282Z,83.00
2022-11-21T08:27:00.271Z,83.00
2022-11-21T08:28:00.301Z,83.00
2022-11-21T08:29:00.404Z,83.00
2022-11-21T08:30:00.300Z,83.00
2022-11-21T08:31:02.602Z,83.23
2022-11-21T08:32:00.376Z,83.23
2022-11-21T08:33:00.769Z,83.23
2022-11-21T08:34:00.297Z,83.23
2022-11-21T08:35:00.570Z,83.23
2022-11-21T08:36:04.381Z,83.28
2022-11-21T08:37:00.240Z,83.28
2022-11-21T08:38:00.587Z,83.28
2022-11-21T08:39:00.567Z,83.28
2022-11-21T08:40:00.249Z,83.28
2022-11-21T08:41:00.253Z,83.11
2022-11-21T08:42:00.284Z,83.11
2022-11-21T08:43:02.548Z,83.11
2022-11-21T08:44:00.246Z,83.11
2022-11-21T08:45:00.232Z,83.11
2022-11-21T08:46:00.230Z,83.30
2022-11-21T08:47:00.721Z,83.30
2022-11-21T08:48:00.673Z,83.30
2022-11-21T08:49:00.264Z,83.30
2022-11-21T08:50:04.350Z,83.30
2022-11-21T08:51:00.234Z,83.28
2022-11-21T08:52:00.240Z,83.28
2022-11-21T08:53:00.537Z,83.28
2022-11-21T08:54:00.646Z,83.28
2022-11-21T08:55:00.273Z,83.28
2022-11-21T08:56:04.186Z,83.27
2022-11-21T08:57:00.225Z,83.27
2022-11-21T08:58:00.265Z,83.27
2022-11-21T08:59:00.281Z,83.27
2022-11-21T09:00:00.294Z,83.27
2022-11-21T09:01:00.262Z,83.08
2022-11-21T09:02:00.578Z,83.08
2022-11-21T09:03:03.137Z,83.08
2022-11-21T09:04:00.233Z,83.08
2022-11-21T09:05:00.225Z,83.08
2022-11-21T09:06:00.321Z,83.19
2022-11-21T09:07:00.324Z,83.19
2022-11-21T09:08:00.227Z,83.19
2022-11-21T09:09:00.287Z,83.19
2022-11-21T09:10:00.241Z,83.19
2022-11-21T09:11:08.626Z,83.39
2022-11-21T09:12:00.399Z,83.39
2022-11-21T09:13:00.236Z,83.39
2022-11-21T09:14:00.236Z,83.39
2022-11-21T09:15:00.230Z,83.39
2022-11-21T09:16:00.921Z,83.59
2022-11-21T09:17:02.277Z,83.59
2022-11-21T09:18:00.597Z,83.59
2022-11-21T09:19:00.247Z,83.59
2022-11-21T09:20:00.423Z,83.59
2022-11-21T09:21:00.259Z,83.75
2022-11-21T09:22:00.242Z,83.75
2022-11-21T09:23:08.765Z,83.75
2022-11-21T09:24:00.259Z,83.75
2022-11-21T09:25:00.360Z,83.75
2022-11-21T09:26:00.420Z,83.82
2022-11-21T09:27:00.274Z,83.82
2022-11-21T09:28:02.127Z,83.82
2022-11-21T09:29:00.228Z,83.82
2022-11-21T09:30:00.249Z,83.82
2022-11-21T09:31:01.361Z,83.74
2022-11-21T09:32:00.246Z,83.74
2022-11-21T09:33:00.804Z,83.74
2022-11-21T09:34:00.264Z,83.74
2022-11-21T09:35:00.220Z,83.74
2022-11-21T09:36:00.305Z,83.67
2022-11-21T09:37:00.261Z,83.67
2022-11-21T09:38:00.250Z,83.67
2022-11-21T09:39:00.305Z,83.67
2022-11-21T09:40:00.283Z,83.67
2022-11-21T09:41:09.063Z,83.56
2022-11-21T09:42:10.253Z,83.56
2022-11-21T09:43:03.929Z,83.56
2022-11-21T09:44:08.784Z,83.56
2022-11-21T09:45:00.254Z,83.56
2022-11-21T09:46:10.239Z,83.18
2022-11-21T09:47:08.336Z,83.18
2022-11-21T09:48:02.349Z,83.18
2022-11-21T09:49:04.145Z,83.18
2022-11-21T09:50:00.220Z,83.18
2022-11-21T09:51:03.246Z,83.01
2022-11-21T09:52:00.537Z,83.01
2022-11-21T09:53:07.742Z,83.01
2022-11-21T09:54:02.693Z,83.01
2022-11-21T09:55:03.802Z,83.01
2022-11-21T09:56:03.543Z,83.23
2022-11-21T09:57:00.730Z,83.23
2022-11-21T09:58:01.800Z,83.23
2022-11-21T09:59:03.492Z,83.23
2022-11-21T10:00:01.732Z,83.23
2022-11-21T10:01:00.532Z,83.21
2022-11-21T10:02:00.946Z,83.21
2022-11-21T10:03:00.282Z,83.21
2022-11-21T10:04:01.261Z,83.21
2022-11-21T10:05:00.251Z,83.21
2022-11-21T10:06:02.758Z,83.23
2022-11-21T10:07:03.398Z,83.23
2022-11-21T10:08:04.172Z,83.23
2022-11-21T10:09:06.935Z,83.23
2022-11-21T10:10:10.197Z,83.23
2022-11-21T10:11:19.165Z,83.50
2022-11-21T10:12:00.214Z,83.50
2022-11-21T10:13:00.210Z,83.50
2022-11-21T10:14:10.211Z,83.50
2022-11-21T10:15:10.253Z,83.50
2022-11-21T10:16:10.208Z,83.79
2022-11-21T10:17:10.234Z,83.79
2022-11-21T10:18:00.248Z,83.79
2022-11-21T10:19:09.055Z,83.79
2022-11-21T10:20:10.250Z,83.79
2022-11-21T10:21:10.196Z,83.87
2022-11-21T10:22:06.973Z,83.87
2022-11-21T10:23:10.240Z,83.87
2022-11-21T10:24:10.247Z,83.87
2022-11-21T10:25:05.430Z,83.87
2022-11-21T10:26:10.241Z,83.81
2022-11-21T10:27:04.135Z,83.81
2022-11-21T10:28:03.946Z,83.81
2022-11-21T10:29:10.220Z,83.81
2022-11-21T10:30:03.330Z,83.81
2022-11-21T10:31:01.795Z,84.53
2022-11-21T10:32:10.225Z,84.53
2022-11-21T10:33:02.516Z,84.53
2022-11-21T10:34:02.068Z,84.53
2022-11-21T10:35:10.308Z,84.53
2022-11-21T10:36:04.412Z,84.80
2022-11-21T10:37:10.537Z,84.80
2022-11-21T10:38:01.318Z,84.80
2022-11-21T10:39:04.952Z,84.80
2022-11-21T10:40:10.173Z,84.80
2022-11-21T10:41:03.131Z,85.23
2022-11-21T10:42:03.669Z,85.23
2022-11-21T10:43:03.511Z,85.23
2022-11-21T10:44:08.207Z,85.23
2022-11-21T10:45:01.063Z,85.23
2022-11-21T10:46:00.264Z,85.17
2022-11-21T10:47:01.011Z,85.17
2022-11-21T10:48:03.862Z,85.17
2022-11-21T10:49:01.777Z,85.17
2022-11-21T10:50:04.746Z,85.17
2022-11-21T10:51:10.145Z,85.30
2022-11-21T10:52:00.215Z,85.30
2022-11-21T10:53:07.560Z,85.30
2022-11-21T10:54:07.509Z,85.30
2022-11-21T10:55:01.240Z,85.30
2022-11-21T10:56:00.230Z,85.25
2022-11-21T10:57:10.497Z,85.25
2022-11-21T10:58:10.203Z,85.25
2022-11-21T10:59:10.518Z,85.25
2022-11-21T11:00:01.803Z,85.25
2022-11-21T11:01:00.272Z,85.11
2022-11-21T11:02:01.772Z,85.11
2022-11-21T11:03:02.255Z,85.11
2022-11-21T11:04:26.849Z,85.11
2022-11-21T11:05:10.346Z,85.11
2022-11-21T11:06:00.228Z,85.20
2022-11-21T11:07:10.251Z,85.20
2022-11-21T11:08:01.276Z,85.20
2022-11-21T11:09:00.406Z,85.20
2022-11-21T11:10:10.289Z,85.20
2022-11-21T11:11:02.557Z,85.53
2022-11-21T11:12:10.227Z,85.53
2022-11-21T11:13:02.167Z,85.53
2022-11-21T11:14:01.661Z,85.53
2022-11-21T11:15:00.319Z,85.53
2022-11-21T11:16:02.622Z,85.52
2022-11-21T11:17:00.351Z,85.52
2022-11-21T11:18:08.844Z,85.52
2022-11-21T11:19:01.402Z,85.52
2022-11-21T11:20:04.109Z,85.52
2022-11-21T11:21:10.254Z,85.43
2022-11-21T11:22:00.264Z,85.43
2022-11-21T11:23:10.245Z,85.43
2022-11-21T11:24:10.203Z,85.43
2022-11-21T11:25:02.139Z,85.43
2022-11-21T11:26:00.238Z,85.53
2022-11-21T11:27:00.987Z,85.53
2022-11-21T11:28:05.269Z,85.53
2022-11-21T11:29:10.280Z,85.53
2022-11-21T11:30:05.388Z,85.53
2022-11-21T11:31:00.488Z,85.86
2022-11-21T11:32:01.788Z,85.86
2022-11-21T11:33:00.224Z,85.86
2022-11-21T11:34:00.270Z,85.86
2022-11-21T11:35:08.088Z,85.86
2022-11-21T11:36:09.216Z,86.51
2022-11-21T11:37:06.844Z,86.51
2022-11-21T11:38:00.321Z,86.51
2022-11-21T11:39:03.740Z,86.51
2022-11-21T11:40:10.355Z,86.51
2022-11-21T11:41:02.194Z,86.64
2022-11-21T11:42:15.260Z,86.64
2022-11-21T11:43:01.281Z,86.64
2022-11-21T11:44:08.905Z,86.64
2022-11-21T11:45:01.262Z,86.64
2022-11-21T11:46:10.219Z,86.70
2022-11-21T11:47:04.705Z,86.70
2022-11-21T11:48:03.510Z,86.70
2022-11-21T11:49:21.159Z,86.70
2022-11-21T11:50:02.767Z,86.70
2022-11-21T11:51:04.053Z,86.78
2022-11-21T11:52:02.822Z,86.78
2022-11-21T11:53:04.686Z,86.78
2022-11-21T11:54:03.015Z,86.78
2022-11-21T11:55:04.624Z,86.78
2022-11-21T11:56:04.113Z,87.02
2022-11-21T11:57:03.156Z,87.02
2022-11-21T11:58:01.647Z,87.02
2022-11-21T11:59:10.284Z,87.02
2022-11-21T12:00:10.270Z,87.02
2022-11-21T12:01:07.380Z,87.56
2022-11-21T12:02:05.260Z,87.56
2022-11-21T12:03:08.107Z,87.56
2022-11-21T12:04:04.347Z,87.56
2022-11-21T12:05:01.280Z,87.56
2022-11-21T12:06:09.131Z,87.49
2022-11-21T12:08:40.141Z,87.49
2022-11-21T12:09:04.204Z,87.49
2022-11-21T12:10:03.508Z,87.49
2022-11-21T12:11:06.427Z,87.46
2022-11-21T12:12:10.235Z,87.46
2022-11-21T12:13:10.202Z,87.46
2022-11-21T12:14:09.949Z,87.46
2022-11-21T12:15:10.280Z,87.46
2022-11-21T12:16:10.273Z,87.57
2022-11-21T12:17:04.003Z,87.57
2022-11-21T12:18:01.257Z,87.57
2022-11-21T12:19:06.420Z,87.57
2022-11-21T12:20:02.366Z,87.57
2022-11-21T12:21:00.278Z,87.53
2022-11-21T12:22:00.299Z,87.53
2022-11-21T12:23:00.282Z,87.53
2022-11-21T12:24:01.981Z,87.53
2022-11-21T12:25:00.260Z,87.53
2022-11-21T12:26:10.259Z,87.59
2022-11-21T12:27:10.217Z,87.59
2022-11-21T12:28:02.071Z,87.59
2022-11-21T12:29:01.249Z,87.59
2022-11-21T12:30:01.245Z,87.59
2022-11-21T12:31:05.521Z,87.52
2022-11-21T12:32:10.160Z,87.52
2022-11-21T12:33:08.458Z,87.52
2022-11-21T12:34:03.532Z,87.52
2022-11-21T12:35:07.736Z,87.52
2022-11-21T12:36:17.895Z,87.46
2022-11-21T12:37:10.147Z,87.46
2022-11-21T12:38:08.600Z,87.46
2022-11-21T12:39:08.329Z,87.46
2022-11-21T12:40:07.941Z,87.46
2022-11-21T12:41:01.253Z,87.62
2022-11-21T12:42:08.026Z,87.62
2022-11-21T12:43:10.166Z,87.62
2022-11-21T12:44:01.274Z,87.62
2022-11-21T12:45:07.291Z,87.62
2022-11-21T12:46:08.764Z,87.65
2022-11-21T12:47:10.166Z,87.65
2022-11-21T12:48:03.508Z,87.65
2022-11-21T12:49:03.505Z,87.65
2022-11-21T12:50:10.191Z,87.65
2022-11-21T12:51:10.154Z,87.43
2022-11-21T12:52:08.382Z,87.43
2022-11-21T12:53:05.186Z,87.43
2022-11-21T12:54:03.494Z,87.43
2022-11-21T12:55:10.187Z,87.43
2022-11-21T12:56:06.109Z,87.25
2022-11-21T12:57:00.229Z,87.25
2022-11-21T12:58:04.839Z,87.25
2022-11-21T12:59:01.777Z,87.25
2022-11-21T13:00:00.295Z,87.25
2022-11-21T13:01:07.644Z,87.21
2022-11-21T13:02:10.200Z,87.21
2022-11-21T13:03:00.216Z,87.21
2022-11-21T13:04:04.342Z,87.21
2022-11-21T13:05:01.918Z,87.21
2022-11-21T13:06:02.236Z,87.29
2022-11-21T13:07:01.041Z,87.29
2022-11-21T13:08:02.892Z,87.29
2022-11-21T13:09:03.981Z,87.29